Pagina principală
METAR-TAF:

METAR-TAF

Aeroporturi :

Penrhyn, Insulele Cook

Latitudine: 9-00-52S, longitudine: 158-01-57W, elevație: 2 m

Observații meteo curente

Raportul a fost făcut în urmă cu 38 de minute, la 15:00 UTC
Vânt 6 kt de la Nord-est
Temperatură 29°C
Umiditate 84%
Presiune 1008 hPa
Vizibilitate de 10 km sau mai mult
Nori puțini la o înălțime de 1800 picior
Nori împrăștiați la o înălțime de 10000 picior

METAR: NCPY 211500Z AUTO 04006KT 9999 FEW018 SCT100 29/26 Q1008

Ora: 05:38 (15:38 UTC)


TAF: lipsă

Observații și prognoze meteo pentru peste 4.000 de aeroporturi (rapoarte METAR și TAF).

Stațiile disponibile sunt reprezentate pe hartă prin puncte galbene și roșii.

Țineți indicatorul mouse-ului pe punctul dorit pentru a vedea denumirea stației.

Apoi, faceți clic pentru a vedea observațiile și prognozele meteorologice.

Pentru a schimba harta: Pentru mărire, faceți clic pe butoanele verzi cu cruce neagră; pentru micșorare, pe butonul verde cu o liniuță; pentru hărți învecinate, pe săgețile verzi.


METAR-TAF: